createdAt,value
2018-10-11T00:01:58.907Z,34.87
2018-10-11T00:04:27.751Z,37.40
2018-10-11T00:06:56.625Z,34.27
2018-10-11T00:09:25.447Z,34.77
2018-10-11T00:11:54.263Z,35.10
2018-10-11T00:14:23.121Z,32.90
2018-10-11T00:16:51.974Z,34.60
2018-10-11T00:19:21.136Z,36.00
2018-10-11T00:21:49.926Z,37.53
2018-10-11T00:24:18.815Z,33.20
2018-10-11T00:26:47.674Z,36.13
2018-10-11T00:29:16.561Z,34.40
2018-10-11T00:31:45.373Z,35.03
2018-10-11T00:34:14.173Z,33.50
2018-10-11T00:36:43.027Z,35.70
2018-10-11T00:39:11.903Z,37.73
2018-10-11T00:41:40.740Z,32.13
2018-10-11T00:44:09.624Z,35.97
2018-10-11T00:46:38.461Z,39.90
2018-10-11T00:49:07.382Z,40.10
2018-10-11T00:51:36.199Z,36.50
2018-10-11T00:54:05.078Z,42.10
2018-10-11T00:56:33.900Z,39.70
2018-10-11T00:59:02.833Z,40.73
2018-10-11T01:01:31.653Z,45.63
2018-10-11T01:04:00.522Z,43.20
2018-10-11T01:06:29.353Z,42.40
2018-10-11T01:08:58.266Z,40.43
2018-10-11T01:11:27.111Z,37.37
2018-10-11T01:13:55.949Z,43.10
2018-10-11T01:16:24.817Z,36.10
2018-10-11T01:18:53.673Z,43.30
2018-10-11T01:21:22.527Z,40.73
2018-10-11T01:23:51.461Z,44.53
2018-10-11T01:26:20.248Z,37.83
2018-10-11T01:28:49.059Z,37.43
2018-10-11T01:31:22.225Z,40.57
2018-10-11T01:33:51.675Z,40.37
2018-10-11T01:36:20.724Z,42.77
2018-10-11T01:38:51.259Z,41.27
2018-10-11T01:41:20.233Z,45.63
2018-10-11T01:43:49.134Z,43.17
2018-10-11T01:46:17.945Z,42.67
2018-10-11T01:48:46.848Z,43.77
2018-10-11T01:51:15.672Z,51.60
2018-10-11T01:53:44.606Z,45.77
2018-10-11T01:56:13.444Z,47.37
2018-10-11T01:58:42.347Z,45.03
2018-10-11T02:01:11.182Z,45.07
2018-10-11T02:03:40.051Z,43.53
2018-10-11T02:06:08.893Z,55.47
2018-10-11T02:08:37.761Z,64.13
2018-10-11T02:11:06.685Z,65.70
2018-10-11T02:13:35.596Z,67.93
2018-10-11T02:16:04.483Z,70.97
2018-10-11T02:18:33.344Z,56.63
2018-10-11T02:21:02.208Z,64.37
2018-10-11T02:23:31.076Z,53.07
2018-10-11T02:25:59.887Z,49.90
2018-10-11T02:28:28.760Z,49.53
2018-10-11T02:30:57.655Z,54.50
2018-10-11T02:33:26.513Z,57.90
2018-10-11T02:35:55.689Z,51.67
2018-10-11T02:38:24.554Z,50.13
2018-10-11T02:40:53.436Z,51.70
2018-10-11T02:43:22.307Z,51.10
2018-10-11T02:45:51.214Z,46.90
2018-10-11T02:48:20.077Z,55.17
2018-10-11T02:50:48.964Z,49.33
2018-10-11T02:53:17.781Z,57.37
2018-10-11T02:55:46.725Z,49.73
2018-10-11T02:58:26.741Z,54.13
2018-10-11T03:00:55.738Z,56.73
2018-10-11T03:03:27.542Z,53.13
2018-10-11T03:05:58.535Z,49.20
2018-10-11T03:08:27.862Z,54.33
2018-10-11T03:10:57.325Z,54.40
2018-10-11T03:13:26.182Z,55.67
2018-10-11T03:15:54.964Z,57.37
2018-10-11T03:18:23.860Z,57.93
2018-10-11T03:20:52.713Z,56.00
2018-10-11T03:23:21.569Z,61.47
2018-10-11T03:25:50.421Z,55.83
2018-10-11T03:28:19.216Z,62.10
2018-10-11T03:30:48.087Z,55.10
2018-10-11T03:33:16.932Z,55.73
2018-10-11T03:35:45.987Z,54.13
2018-10-11T03:38:14.996Z,57.77
2018-10-11T03:40:43.930Z,49.33
2018-10-11T03:43:12.748Z,53.10
2018-10-11T03:45:41.733Z,56.83
2018-10-11T03:48:10.603Z,54.53
2018-10-11T03:50:39.463Z,47.90
2018-10-11T03:53:08.306Z,54.27
2018-10-11T03:55:37.120Z,56.50
2018-10-11T03:58:06.007Z,57.40
2018-10-11T04:00:34.963Z,54.37
2018-10-11T04:03:03.832Z,49.53
2018-10-11T04:05:32.639Z,54.47
2018-10-11T04:08:01.557Z,50.77
2018-10-11T04:10:30.415Z,46.70
2018-10-11T04:12:59.313Z,50.00
2018-10-11T04:15:28.262Z,45.73
2018-10-11T04:17:57.229Z,53.90
2018-10-11T04:20:26.088Z,47.07
2018-10-11T04:22:54.934Z,52.87
2018-10-11T04:25:23.782Z,46.23
2018-10-11T04:27:52.667Z,55.17
2018-10-11T04:30:21.477Z,50.67
2018-10-11T04:32:50.294Z,49.00
2018-10-11T04:35:19.165Z,49.07
2018-10-11T04:37:48.018Z,48.93
2018-10-11T04:40:16.914Z,50.77
2018-10-11T04:42:45.816Z,50.90
2018-10-11T04:45:14.734Z,46.43
2018-10-11T04:47:43.621Z,45.97
2018-10-11T04:50:12.523Z,46.37
2018-10-11T04:52:41.350Z,49.40
2018-10-11T04:55:10.222Z,46.43
2018-10-11T04:57:39.038Z,46.87
2018-10-11T05:00:07.977Z,49.17
2018-10-11T05:02:36.844Z,55.57
2018-10-11T05:05:05.749Z,47.03
2018-10-11T05:07:34.627Z,48.27
2018-10-11T05:10:03.527Z,48.30
2018-10-11T05:12:32.433Z,44.47
2018-10-11T05:15:01.470Z,44.37
2018-10-11T05:17:30.915Z,46.60
2018-10-11T05:19:59.724Z,45.30
2018-10-11T05:22:28.668Z,40.17
2018-10-11T05:24:57.609Z,41.17
2018-10-11T05:27:27.297Z,42.03
2018-10-11T05:29:56.172Z,43.20
2018-10-11T05:32:25.689Z,40.60
2018-10-11T05:34:54.677Z,42.00
2018-10-11T05:37:23.603Z,41.77
2018-10-11T05:39:52.458Z,43.80
2018-10-11T05:42:21.452Z,44.23
2018-10-11T05:44:50.489Z,42.00
2018-10-11T05:47:19.466Z,40.90
2018-10-11T05:49:48.446Z,44.20
2018-10-11T05:52:17.327Z,43.13
2018-10-11T05:54:46.283Z,44.00
2018-10-11T05:57:15.128Z,43.23
2018-10-11T05:59:44.048Z,44.33
2018-10-11T06:02:13.005Z,45.20
2018-10-11T06:04:41.922Z,41.60
2018-10-11T06:07:10.906Z,45.43
2018-10-11T06:09:40.045Z,40.90
2018-10-11T06:12:11.184Z,40.13
2018-10-11T06:14:40.278Z,44.40
2018-10-11T06:17:09.205Z,47.77
2018-10-11T06:19:38.114Z,44.53
2018-10-11T06:22:07.296Z,45.40
2018-10-11T06:24:36.242Z,51.40
2018-10-11T06:27:05.316Z,46.13
2018-10-11T06:29:34.293Z,45.60
2018-10-11T06:32:03.279Z,47.97
2018-10-11T06:34:32.234Z,46.13
2018-10-11T06:37:02.191Z,42.50
2018-10-11T06:39:31.179Z,41.73
2018-10-11T06:42:00.142Z,41.73
2018-10-11T06:44:29.130Z,40.20
2018-10-11T06:46:58.093Z,36.77
2018-10-11T06:49:27.156Z,40.03
2018-10-11T06:51:56.075Z,34.83
2018-10-11T06:54:25.176Z,32.53
2018-10-11T06:56:54.033Z,40.77
2018-10-11T06:59:22.902Z,37.23
2018-10-11T07:01:51.809Z,33.87
2018-10-11T07:04:20.614Z,34.50
2018-10-11T07:06:49.595Z,35.77
2018-10-11T07:09:18.483Z,38.03
2018-10-11T07:11:47.367Z,34.60
2018-10-11T07:14:16.235Z,34.53
2018-10-11T07:16:45.135Z,32.60
2018-10-11T07:19:14.062Z,33.80
2018-10-11T07:21:42.886Z,31.30
2018-10-11T07:24:11.836Z,28.17
2018-10-11T07:26:40.685Z,32.47
2018-10-11T07:29:09.585Z,26.33
2018-10-11T07:31:38.436Z,29.63
2018-10-11T07:34:07.349Z,26.63
2018-10-11T07:36:36.178Z,31.97
2018-10-11T07:39:08.533Z,26.53
2018-10-11T07:41:37.462Z,25.57
2018-10-11T07:44:06.771Z,28.87
2018-10-11T07:46:35.698Z,27.40
2018-10-11T07:49:05.645Z,23.87
2018-10-11T07:51:34.513Z,28.40
2018-10-11T07:54:03.660Z,26.67
2018-10-11T07:56:33.856Z,36.00
2018-10-11T07:59:02.783Z,27.87
2018-10-11T08:01:32.209Z,26.30
2018-10-11T08:04:01.119Z,25.70
2018-10-11T08:06:30.291Z,26.93
2018-10-11T08:08:59.362Z,21.83
2018-10-11T08:11:28.292Z,23.13
2018-10-11T08:13:57.080Z,26.77
2018-10-11T08:16:25.955Z,24.93
2018-10-11T08:18:55.037Z,23.27
2018-10-11T08:21:23.812Z,19.43
2018-10-11T08:23:52.655Z,23.30
2018-10-11T08:26:21.683Z,19.77
2018-10-11T08:28:50.420Z,17.93
2018-10-11T08:31:19.277Z,21.13
2018-10-11T08:33:48.223Z,19.43
2018-10-11T08:36:17.142Z,17.97
2018-10-11T08:38:46.057Z,17.53
2018-10-11T08:41:14.934Z,20.17
2018-10-11T08:43:43.839Z,19.50
2018-10-11T08:46:12.948Z,18.43
2018-10-11T08:48:41.783Z,19.93
2018-10-11T08:51:10.643Z,24.40
2018-10-11T08:53:39.629Z,18.50
2018-10-11T08:56:08.527Z,19.40
2018-10-11T08:58:37.507Z,18.30
2018-10-11T09:01:06.424Z,19.20
2018-10-11T09:03:35.396Z,17.00
2018-10-11T09:06:04.297Z,18.73
2018-10-11T09:08:33.436Z,18.90
2018-10-11T09:11:02.451Z,20.03
2018-10-11T09:13:31.321Z,17.87
2018-10-11T09:16:01.424Z,16.13
2018-10-11T09:18:30.383Z,19.03
2018-10-11T09:20:59.246Z,26.70
2018-10-11T09:23:28.844Z,19.20
2018-10-11T09:25:57.873Z,21.10
2018-10-11T09:28:26.744Z,20.60
2018-10-11T09:30:55.660Z,18.03
2018-10-11T09:33:24.503Z,18.33
2018-10-11T09:35:53.497Z,16.20
2018-10-11T09:38:22.374Z,17.00
2018-10-11T09:40:51.237Z,18.17
2018-10-11T09:43:20.107Z,19.63
2018-10-11T09:45:48.957Z,18.40
2018-10-11T09:48:17.934Z,18.40
2018-10-11T09:50:46.778Z,18.60
2018-10-11T09:53:15.663Z,17.23
2018-10-11T09:55:44.462Z,17.47
2018-10-11T09:58:13.358Z,17.63
2018-10-11T10:00:47.408Z,17.43
2018-10-11T10:03:16.305Z,18.50
2018-10-11T10:05:45.122Z,15.30
2018-10-11T10:08:14.011Z,15.87
2018-10-11T10:10:42.884Z,17.37
2018-10-11T10:13:11.792Z,17.97
2018-10-11T10:15:40.778Z,15.77
2018-10-11T10:18:09.824Z,16.13
2018-10-11T10:20:38.726Z,17.80
2018-10-11T10:23:07.656Z,20.30
2018-10-11T10:25:36.717Z,18.67
2018-10-11T10:28:05.410Z,17.13
2018-10-11T10:30:39.408Z,16.53
2018-10-11T10:33:08.415Z,19.77
2018-10-11T10:35:37.377Z,16.17
2018-10-11T10:38:06.267Z,16.80
2018-10-11T10:40:35.183Z,17.70
2018-10-11T10:43:04.079Z,15.50
2018-10-11T10:45:33.093Z,18.33
2018-10-11T10:48:02.028Z,16.57
2018-10-11T10:50:31.357Z,16.40
2018-10-11T10:53:00.296Z,16.50
2018-10-11T10:55:29.144Z,17.30
2018-10-11T10:57:57.931Z,15.57
2018-10-11T11:00:26.822Z,14.63
2018-10-11T11:02:55.656Z,14.27
2018-10-11T11:05:24.499Z,16.87
2018-10-11T11:07:53.356Z,15.17
2018-10-11T11:10:22.567Z,16.27
2018-10-11T11:12:51.409Z,18.07
2018-10-11T11:15:20.316Z,16.43
2018-10-11T11:17:49.157Z,15.77
2018-10-11T11:20:18.222Z,18.67
2018-10-11T11:22:47.030Z,21.27
2018-10-11T11:25:15.924Z,15.80
2018-10-11T11:27:44.820Z,15.07
2018-10-11T11:30:13.732Z,17.77
2018-10-11T11:32:42.555Z,16.03
2018-10-11T11:35:11.436Z,16.17
2018-10-11T11:37:40.287Z,13.63
2018-10-11T11:40:09.423Z,17.80
2018-10-11T11:42:38.249Z,14.23
2018-10-11T11:45:07.385Z,15.80
2018-10-11T11:47:36.242Z,16.63
2018-10-11T11:50:05.173Z,13.57
2018-10-11T11:52:34.053Z,15.67
2018-10-11T11:55:02.968Z,15.10
2018-10-11T11:57:31.920Z,14.37
2018-10-11T12:00:00.757Z,16.67
2018-10-11T12:02:29.620Z,15.67
2018-10-11T12:04:58.509Z,17.67
2018-10-11T12:07:27.423Z,13.97
2018-10-11T12:09:56.312Z,17.10
2018-10-11T12:13:05.968Z,15.10
2018-10-11T12:15:35.541Z,15.93
2018-10-11T12:18:05.296Z,13.97
2018-10-11T12:20:35.396Z,13.40
2018-10-11T12:23:05.437Z,13.47
2018-10-11T12:25:34.528Z,16.47
2018-10-11T12:28:03.878Z,13.70
2018-10-11T12:30:34.315Z,16.90
2018-10-11T12:33:03.427Z,12.50
2018-10-11T12:35:32.590Z,14.83
2018-10-11T12:38:02.607Z,14.47
2018-10-11T12:40:31.724Z,13.87
2018-10-11T12:43:00.711Z,15.90
2018-10-11T12:45:29.572Z,15.07
2018-10-11T12:47:58.547Z,12.90
2018-10-11T12:50:27.476Z,13.60
2018-10-11T12:52:56.544Z,15.33
2018-10-11T12:55:25.425Z,14.80
2018-10-11T12:57:54.277Z,15.97
2018-10-11T13:00:23.123Z,12.00
2018-10-11T13:02:52.112Z,13.00
2018-10-11T13:05:20.925Z,17.93
2018-10-11T13:07:49.789Z,11.83
2018-10-11T13:10:18.760Z,14.17
2018-10-11T13:12:47.659Z,17.37
2018-10-11T13:15:16.537Z,14.20
2018-10-11T13:17:45.467Z,13.40
2018-10-11T13:20:14.336Z,13.33
2018-10-11T13:22:43.324Z,13.40
2018-10-11T13:25:12.220Z,14.13
2018-10-11T13:27:41.071Z,14.20
2018-10-11T13:30:10.009Z,15.17
2018-10-11T13:32:38.848Z,16.60
2018-10-11T13:35:08.146Z,15.90
2018-10-11T13:37:37.088Z,17.20
2018-10-11T13:40:06.108Z,22.00
2018-10-11T13:42:34.974Z,15.30
2018-10-11T13:45:03.914Z,13.67
2018-10-11T13:47:36.457Z,13.03
2018-10-11T13:50:01.784Z,15.03
2018-10-11T13:52:30.663Z,16.90
2018-10-11T13:54:59.613Z,15.60
2018-10-11T13:57:31.122Z,17.43
2018-10-11T13:59:58.722Z,14.37
2018-10-11T14:02:27.630Z,15.43
2018-10-11T14:04:56.528Z,13.27
2018-10-11T14:07:25.496Z,12.33
2018-10-11T14:09:54.381Z,13.43
2018-10-11T14:12:23.330Z,12.30
2018-10-11T14:14:52.184Z,11.93
2018-10-11T14:17:21.107Z,12.17
2018-10-11T14:19:49.960Z,11.70
2018-10-11T14:22:18.782Z,12.43
2018-10-11T14:24:47.666Z,12.13
2018-10-11T14:27:16.582Z,12.83
2018-10-11T14:29:46.311Z,15.20
2018-10-11T14:32:15.119Z,12.90
2018-10-11T14:34:43.973Z,12.97
2018-10-11T14:37:12.947Z,16.13
2018-10-11T14:39:41.757Z,14.37
2018-10-11T14:42:10.654Z,13.60
2018-10-11T14:44:39.539Z,12.10
2018-10-11T14:47:08.375Z,11.90
2018-10-11T14:49:37.277Z,12.87
2018-10-11T14:52:07.313Z,16.27
2018-10-11T14:54:36.456Z,12.40
2018-10-11T14:57:06.745Z,10.50
2018-10-11T14:59:36.048Z,12.00
2018-10-11T15:02:04.856Z,14.23
2018-10-11T15:04:33.991Z,10.87
2018-10-11T15:07:03.101Z,11.47
2018-10-11T15:09:31.912Z,10.83
2018-10-11T15:12:00.777Z,12.37
2018-10-11T15:14:29.591Z,13.67
2018-10-11T15:16:58.486Z,16.00
2018-10-11T15:19:27.350Z,10.20
2018-10-11T15:21:56.216Z,13.20
2018-10-11T15:24:25.040Z,10.60
2018-10-11T15:26:53.896Z,11.00
2018-10-11T15:29:22.811Z,13.43
2018-10-11T15:31:51.922Z,15.50
2018-10-11T15:34:20.759Z,14.90
2018-10-11T15:36:49.626Z,13.03
2018-10-11T15:39:18.807Z,14.63
2018-10-11T15:41:47.650Z,14.17
2018-10-11T15:44:16.496Z,17.73
2018-10-11T15:46:45.509Z,18.53
2018-10-11T15:49:14.332Z,16.27
2018-10-11T15:51:43.231Z,11.57
2018-10-11T15:54:12.390Z,18.27
2018-10-11T15:56:41.351Z,17.40
2018-10-11T15:59:10.235Z,15.90
2018-10-11T16:01:39.347Z,13.63
2018-10-11T16:04:08.209Z,11.70
2018-10-11T16:06:37.094Z,11.00
2018-10-11T16:09:07.970Z,17.77
2018-10-11T16:11:36.756Z,16.17
2018-10-11T16:14:05.558Z,11.37
2018-10-11T16:16:34.512Z,13.23
2018-10-11T16:19:03.400Z,17.47
2018-10-11T16:21:32.223Z,14.97
2018-10-11T16:24:01.078Z,15.13
2018-10-11T16:26:29.926Z,14.30
2018-10-11T16:28:59.088Z,15.07
2018-10-11T16:31:27.911Z,14.97
2018-10-11T16:33:56.883Z,16.67
2018-10-11T16:36:25.734Z,12.77
2018-10-11T16:38:54.633Z,13.60
2018-10-11T16:41:23.670Z,15.83
2018-10-11T16:43:52.822Z,15.00
2018-10-11T16:46:21.644Z,18.93
2018-10-11T16:48:50.519Z,17.73
2018-10-11T16:51:19.372Z,19.67
2018-10-11T16:53:48.189Z,18.30
2018-10-11T16:56:17.038Z,18.53
2018-10-11T16:58:45.908Z,14.83
2018-10-11T17:01:15.185Z,18.97
2018-10-11T17:03:43.982Z,14.90
2018-10-11T17:06:12.901Z,24.90
2018-10-11T17:08:41.745Z,18.20
2018-10-11T17:11:11.324Z,23.63
2018-10-11T17:13:40.224Z,18.47
2018-10-11T17:16:09.081Z,22.30
2018-10-11T17:18:38.141Z,21.63
2018-10-11T17:21:07.057Z,19.33
2018-10-11T17:23:36.157Z,18.30
2018-10-11T17:26:04.991Z,15.50
2018-10-11T17:28:33.836Z,21.87
2018-10-11T17:31:02.677Z,20.53
2018-10-11T17:33:31.607Z,22.43
2018-10-11T17:36:00.449Z,21.53
2018-10-11T17:38:29.258Z,20.30
2018-10-11T17:40:58.119Z,22.20
2018-10-11T17:43:27.692Z,23.77
2018-10-11T17:45:56.525Z,26.20
2018-10-11T17:48:25.403Z,21.30
2018-10-11T17:50:54.276Z,27.00
2018-10-11T17:53:23.080Z,23.50
2018-10-11T17:55:51.932Z,27.00
2018-10-11T17:58:21.647Z,24.37
2018-10-11T18:00:50.518Z,20.33
2018-10-11T18:03:19.371Z,20.27
2018-10-11T18:05:48.495Z,23.10
2018-10-11T18:08:18.361Z,18.30
2018-10-11T18:10:47.227Z,21.53
2018-10-11T18:13:16.167Z,22.80
2018-10-11T18:15:45.693Z,20.53
2018-10-11T18:18:16.035Z,23.13
2018-10-11T18:20:46.415Z,19.83
2018-10-11T18:23:17.377Z,21.73
2018-10-11T18:25:46.428Z,22.93
2018-10-11T18:28:15.493Z,20.90
2018-10-11T18:30:45.513Z,21.80
2018-10-11T18:33:14.484Z,18.67
2018-10-11T18:35:43.523Z,19.90
2018-10-11T18:38:12.397Z,19.83
2018-10-11T18:40:42.378Z,22.73
2018-10-11T18:43:11.371Z,19.77
2018-10-11T18:45:40.261Z,19.70
2018-10-11T18:48:09.887Z,15.87
2018-10-11T18:50:38.709Z,17.20
2018-10-11T18:53:07.581Z,20.37
2018-10-11T18:55:38.181Z,19.27
2018-10-11T18:58:07.159Z,17.40
2018-10-11T19:00:36.164Z,17.60
2018-10-11T19:03:05.036Z,18.57
2018-10-11T19:05:33.975Z,17.73
2018-10-11T19:08:03.817Z,20.67
2018-10-11T19:10:32.697Z,27.13
2018-10-11T19:13:01.591Z,22.57
2018-10-11T19:15:32.327Z,20.90
2018-10-11T19:18:01.201Z,19.47
2018-10-11T19:20:30.092Z,21.20
2018-10-11T19:22:59.458Z,28.13
2018-10-11T19:25:28.451Z,23.67
2018-10-11T19:27:57.340Z,32.70
2018-10-11T19:30:26.222Z,22.90
2018-10-11T19:32:55.565Z,22.57
2018-10-11T19:35:24.573Z,23.83
2018-10-11T19:37:56.538Z,24.47
2018-10-11T19:40:25.411Z,23.53
2018-10-11T19:42:54.651Z,20.00
2018-10-11T19:45:23.541Z,24.87
2018-10-11T19:47:52.429Z,19.33
2018-10-11T19:50:21.771Z,20.70
2018-10-11T19:52:50.748Z,26.97
2018-10-11T19:55:19.926Z,23.37
2018-10-11T19:57:50.894Z,25.07
2018-10-11T20:00:19.777Z,21.03
2018-10-11T20:02:48.694Z,22.30
2018-10-11T20:05:17.619Z,21.07
2018-10-11T20:07:46.427Z,19.10
2018-10-11T20:10:15.514Z,19.70
2018-10-11T20:12:44.406Z,23.43
2018-10-11T20:15:13.300Z,20.37
2018-10-11T20:17:42.140Z,24.40
2018-10-11T20:20:11.009Z,23.23
2018-10-11T20:22:39.832Z,25.67
2018-10-11T20:25:08.748Z,25.30
2018-10-11T20:27:37.625Z,24.60
2018-10-11T20:30:06.717Z,23.70
2018-10-11T20:32:35.661Z,22.23
2018-10-11T20:35:04.597Z,22.53
2018-10-11T20:37:33.450Z,21.50
2018-10-11T20:40:02.409Z,23.63
2018-10-11T20:42:31.377Z,20.97
2018-10-11T20:45:00.191Z,22.10
2018-10-11T20:47:29.037Z,23.70
2018-10-11T20:49:57.853Z,24.37
2018-10-11T20:52:26.702Z,26.83
2018-10-11T20:54:55.632Z,23.10
2018-10-11T20:57:24.585Z,29.57
2018-10-11T20:59:53.474Z,21.23
2018-10-11T21:02:22.339Z,25.57
2018-10-11T21:04:51.205Z,23.93
2018-10-11T21:07:20.208Z,22.07
2018-10-11T21:09:49.024Z,22.30
2018-10-11T21:12:17.892Z,22.57
2018-10-11T21:14:46.690Z,23.77
2018-10-11T21:17:16.013Z,28.17
2018-10-11T21:19:45.802Z,22.23
2018-10-11T21:22:14.675Z,21.03
2018-10-11T21:24:43.516Z,23.90
2018-10-11T21:27:12.394Z,21.97
2018-10-11T21:29:41.215Z,25.63
2018-10-11T21:32:10.139Z,21.03
2018-10-11T21:34:39.047Z,22.27
2018-10-11T21:37:07.960Z,24.23
2018-10-11T21:39:36.858Z,23.90
2018-10-11T21:42:05.704Z,26.67
2018-10-11T21:44:34.608Z,24.97
2018-10-11T21:47:03.478Z,26.87
2018-10-11T21:49:32.300Z,26.37
2018-10-11T21:52:01.124Z,27.03
2018-10-11T21:54:29.978Z,24.37
2018-10-11T21:56:58.850Z,24.50
2018-10-11T21:59:27.802Z,24.90
2018-10-11T22:01:56.610Z,27.10
2018-10-11T22:04:25.600Z,23.30
2018-10-11T22:06:54.567Z,26.83
2018-10-11T22:09:23.566Z,24.20
2018-10-11T22:11:52.356Z,22.27
2018-10-11T22:14:21.189Z,22.73
2018-10-11T22:16:50.098Z,19.77
2018-10-11T22:19:18.967Z,22.23
2018-10-11T22:21:49.040Z,23.97
2018-10-11T22:24:17.874Z,22.07
2018-10-11T22:26:46.742Z,26.77
2018-10-11T22:29:15.611Z,24.73
2018-10-11T22:31:44.494Z,23.90
2018-10-11T22:34:13.355Z,22.23
2018-10-11T22:36:42.315Z,20.73
2018-10-11T22:39:12.032Z,24.97
2018-10-11T22:41:41.367Z,22.77
2018-10-11T22:44:11.017Z,25.77
2018-10-11T22:46:40.276Z,29.13
2018-10-11T22:49:09.620Z,23.37
2018-10-11T22:51:38.660Z,24.93
2018-10-11T22:54:08.229Z,24.40
2018-10-11T22:56:37.114Z,24.33
2018-10-11T22:59:06.031Z,25.20
2018-10-11T23:01:34.887Z,23.57
2018-10-11T23:04:03.698Z,23.37
2018-10-11T23:06:32.649Z,23.90
2018-10-11T23:09:01.572Z,27.37
2018-10-11T23:11:30.391Z,24.83
2018-10-11T23:13:59.266Z,24.40
2018-10-11T23:16:28.106Z,25.97
2018-10-11T23:18:57.009Z,26.63
2018-10-11T23:21:25.829Z,24.50
2018-10-11T23:23:54.676Z,21.77
2018-10-11T23:26:23.483Z,23.80
2018-10-11T23:28:52.346Z,23.50
2018-10-11T23:31:21.166Z,22.13
2018-10-11T23:33:50.036Z,24.33
2018-10-11T23:36:18.901Z,27.80
2018-10-11T23:38:47.766Z,29.00
2018-10-11T23:41:16.595Z,24.37
2018-10-11T23:43:45.387Z,30.70
2018-10-11T23:46:14.259Z,24.77
2018-10-11T23:48:44.118Z,25.23
2018-10-11T23:51:13.010Z,25.30
2018-10-11T23:53:41.821Z,26.43
2018-10-11T23:56:10.671Z,25.67
2018-10-11T23:58:39.463Z,32.67
